Time;durP1;ratioP1;P1;durP2;ratioP2;P2;SDS_P1;SDS_P2;PMS_P1;PMS_P2;Temp;Humidity;BMP_temperature;BMP_pressure;BME280_temperature;BME280_humidity;BME280_pressure;Samples;Min_cycle;Max_cycle;Signal;HPM_P1;HPM_P2
2022/04/23 00:01:20;;;;;;;25.40;19.90;;;10.00;69.10;;;;;;4972676;28;46383;-77
2022/04/23 00:03:45;;;;;;;25.83;19.20;;;10.00;69.20;;;;;;4970398;28;46415;-78
2022/04/23 00:06:11;;;;;;;26.80;18.63;;;10.00;69.00;;;;;;4976804;28;46361;-80
2022/04/23 00:08:36;;;;;;;27.70;19.10;;;10.00;68.80;;;;;;4967306;28;46457;-77
2022/04/23 00:11:02;;;;;;;26.47;19.10;;;9.90;69.60;;;;;;4976070;28;46420;-77
2022/04/23 00:13:27;;;;;;;26.53;18.03;;;9.90;69.90;;;;;;4963218;28;46378;-78
2022/04/23 00:15:53;;;;;;;27.90;16.90;;;9.90;69.90;;;;;;4979913;28;46365;-77
2022/04/23 00:18:19;;;;;;;21.90;16.93;;;9.80;70.10;;;;;;4974751;28;47017;-77
2022/04/23 00:20:46;;;;;;;25.90;19.20;;;9.80;70.40;;;;;;4978691;28;46560;-78
2022/04/23 00:23:12;;;;;;;25.00;17.87;;;9.70;70.60;;;;;;4974691;28;46681;-79
2022/04/23 00:25:39;;;;;;;23.10;16.90;;;9.70;70.60;;;;;;4976392;28;46537;-77
2022/04/23 00:28:05;;;;;;;27.00;19.53;;;9.70;70.60;;;;;;4974569;28;46333;-78
2022/04/23 00:30:31;;;;;;;25.43;18.30;;;9.60;71.10;;;;;;4975325;28;46562;-77
2022/04/23 00:33:00;;;;;;;27.67;19.63;;;9.60;70.80;;;;;;4975782;28;46325;-77
2022/04/23 00:35:26;;;;;;;27.03;18.37;;;9.60;70.50;;;;;;4974658;28;45879;-79
2022/04/23 00:37:52;;;;;;;26.73;18.27;;;9.60;70.60;;;;;;4957940;28;48260;-77
2022/04/23 00:40:18;;;;;;;26.27;17.77;;;9.50;71.00;;;;;;4972496;28;46416;-78
2022/04/23 00:42:46;;;;;;;28.37;20.30;;;9.50;71.10;;;;;;4974152;28;45821;-77
2022/04/23 00:45:11;;;;;;;27.27;18.23;;;9.50;70.80;;;;;;4955172;28;46348;-78
2022/04/23 00:47:38;;;;;;;28.60;18.63;;;9.50;70.60;;;;;;4977910;28;46413;-80
2022/04/23 00:50:04;;;;;;;31.23;18.87;;;9.50;70.60;;;;;;4971990;28;45881;-78
2022/04/23 00:52:32;;;;;;;24.53;17.33;;;9.50;70.70;;;;;;4974147;28;46441;-78
2022/04/23 00:55:07;;;;;;;26.17;17.90;;;9.50;70.50;;;;;;4973052;28;46620;-78
2022/04/23 00:57:34;;;;;;;29.90;19.63;;;9.50;70.70;;;;;;4971993;28;47201;-77
2022/04/23 01:00:04;;;;;;;28.23;19.50;;;9.50;70.50;;;;;;4975574;28;46317;-78
2022/04/23 01:02:29;;;;;;;30.70;20.60;;;9.50;70.50;;;;;;4969875;28;46470;-78
2022/04/23 01:04:55;;;;;;;27.50;19.20;;;9.50;70.50;;;;;;4979277;28;46429;-79
2022/04/23 01:07:21;;;;;;;31.17;19.87;;;9.40;70.60;;;;;;4969431;28;46484;-78
2022/04/23 01:09:48;;;;;;;29.10;19.60;;;9.40;70.80;;;;;;4960906;28;46731;-78
2022/04/23 01:12:13;;;;;;;31.43;19.97;;;9.40;70.70;;;;;;4973533;28;46464;-78
2022/04/23 01:15:03;;;;;;;33.53;20.83;;;9.40;70.30;;;;;;4973467;28;46313;-79
2022/04/23 01:17:29;;;;;;;28.70;18.70;;;9.40;70.10;;;;;;4956670;28;49501;-78
2022/04/23 01:19:54;;;;;;;35.10;21.27;;;9.40;70.30;;;;;;4967955;28;46397;-77
2022/04/23 01:22:23;;;;;;;31.20;19.70;;;9.40;70.00;;;;;;4976237;28;46486;-77
2022/04/23 01:24:51;;;;;;;29.67;19.70;;;9.40;70.10;;;;;;4975445;28;46492;-78
2022/04/23 01:27:17;;;;;;;29.90;19.23;;;9.40;70.40;;;;;;4972381;28;46393;-77
2022/04/23 01:29:43;;;;;;;33.90;19.03;;;9.40;70.40;;;;;;4975612;28;46277;-77
2022/04/23 01:32:08;;;;;;;31.37;19.87;;;9.30;70.40;;;;;;4975948;28;46297;-79
2022/04/23 01:34:34;;;;;;;30.53;19.67;;;9.30;70.40;;;;;;4972451;28;46528;-79
2022/04/23 01:36:59;;;;;;;29.33;19.47;;;9.20;70.60;;;;;;4977922;28;46356;-78
2022/04/23 01:39:25;;;;;;;30.77;18.87;;;9.30;70.60;;;;;;4965881;28;46628;-78
2022/04/23 01:41:51;;;;;;;34.07;21.63;;;9.30;70.50;;;;;;4956383;28;45846;-79
2022/04/23 01:44:17;;;;;;;32.03;20.00;;;9.20;70.40;;;;;;4976531;28;46477;-81
2022/04/23 01:46:44;;;;;;;28.50;18.93;;;9.30;70.40;;;;;;4975397;28;46533;-79
2022/04/23 01:49:10;;;;;;;30.23;19.80;;;9.20;70.50;;;;;;4954614;28;49230;-78
2022/04/23 01:51:35;;;;;;;30.97;20.27;;;9.30;70.50;;;;;;4980732;28;46378;-78
2022/04/23 01:54:01;;;;;;;35.27;21.10;;;9.20;70.60;;;;;;4975894;28;46417;-77
2022/04/23 01:56:26;;;;;;;29.37;20.13;;;9.20;70.50;;;;;;4977596;28;46632;-77
2022/04/23 01:58:52;;;;;;;33.23;19.97;;;9.20;70.30;;;;;;4958241;28;47890;-78
2022/04/23 02:01:17;;;;;;;34.53;20.10;;;9.20;70.60;;;;;;4971294;28;46449;-77
2022/04/23 02:03:45;;;;;;;31.40;19.87;;;9.10;70.80;;;;;;4979549;28;45759;-77
2022/04/23 02:06:11;;;;;;;33.87;21.23;;;9.10;70.90;;;;;;4974395;28;47184;-78
2022/04/23 02:08:37;;;;;;;30.03;18.53;;;9.10;70.90;;;;;;4976026;28;46322;-79
2022/04/23 02:11:02;;;;;;;31.33;19.33;;;9.00;71.10;;;;;;4976846;28;46489;-77
2022/04/23 02:13:28;;;;;;;31.93;19.43;;;9.00;71.20;;;;;;4973875;28;46487;-76
2022/04/23 02:15:53;;;;;;;32.50;18.30;;;9.00;71.50;;;;;;4986576;28;46549;-79
2022/04/23 02:18:21;;;;;;;29.10;18.20;;;8.80;72.00;;;;;;4988524;28;46285;-79
2022/04/23 02:20:47;;;;;;;27.70;17.87;;;8.80;72.30;;;;;;4974141;28;46434;-78
2022/04/23 02:23:12;;;;;;;26.77;17.50;;;8.70;72.30;;;;;;4974507;28;46435;-77
2022/04/23 02:25:38;;;;;;;28.60;19.90;;;8.70;72.40;;;;;;4969711;28;47294;-78
2022/04/23 02:28:04;;;;;;;31.63;17.30;;;8.70;72.60;;;;;;4974724;28;46404;-76
2022/04/23 02:30:31;;;;;;;32.60;19.63;;;8.60;73.00;;;;;;4950931;28;45986;-77
2022/04/23 02:32:56;;;;;;;30.00;18.97;;;8.60;72.80;;;;;;4971011;28;46514;-77
2022/04/23 02:35:22;;;;;;;31.10;19.00;;;8.60;72.80;;;;;;4971574;28;46420;-78
2022/04/23 02:37:48;;;;;;;33.13;19.97;;;8.50;73.30;;;;;;4966632;28;46457;-77
2022/04/23 02:40:15;;;;;;;31.80;19.63;;;8.60;73.10;;;;;;4976687;28;46607;-77
2022/04/23 02:42:42;;;;;;;35.07;21.10;;;8.60;72.90;;;;;;4980904;28;46457;-77
2022/04/23 02:45:09;;;;;;;29.00;18.60;;;8.70;72.30;;;;;;4973680;28;47823;-78
2022/04/23 02:47:45;;;;;;;33.47;19.83;;;8.70;72.50;;;;;;4972595;28;46494;-78
2022/04/23 02:50:12;;;;;;;33.37;21.60;;;8.60;72.40;;;;;;4953282;28;46378;-77
2022/04/23 02:52:41;;;;;;;30.30;19.53;;;8.60;72.40;;;;;;4968014;28;46536;-77
2022/04/23 02:55:07;;;;;;;32.07;20.50;;;8.60;72.40;;;;;;4952151;28;47834;-77
2022/04/23 02:57:32;;;;;;;31.40;19.73;;;8.50;72.60;;;;;;4971474;28;46455;-76
2022/04/23 02:59:58;;;;;;;33.00;20.97;;;8.50;72.60;;;;;;4970840;28;46409;-78
2022/04/23 03:02:23;;;;;;;34.57;20.70;;;8.50;72.70;;;;;;4952367;28;46848;-78
2022/04/23 03:04:49;;;;;;;34.80;21.33;;;8.50;72.60;;;;;;4970434;28;46418;-77
2022/04/23 03:07:14;;;;;;;32.97;21.40;;;8.50;72.50;;;;;;4972171;28;46521;-76
2022/04/23 03:09:40;;;;;;;33.80;21.23;;;8.60;72.60;;;;;;4975174;28;46526;-79
2022/04/23 03:12:06;;;;;;;34.30;22.30;;;8.50;73.00;;;;;;4964950;28;46476;-79
2022/04/23 03:14:32;;;;;;;30.57;20.37;;;8.40;73.00;;;;;;4973789;28;46476;-79
2022/04/23 03:16:58;;;;;;;32.03;19.40;;;8.40;73.30;;;;;;4970303;28;46820;-79
2022/04/23 03:19:24;;;;;;;31.60;19.43;;;8.30;73.50;;;;;;4969049;28;46439;-79
2022/04/23 03:21:50;;;;;;;30.87;20.33;;;8.30;74.10;;;;;;4972705;28;46191;-78
2022/04/23 03:24:15;;;;;;;34.73;21.00;;;8.40;73.70;;;;;;4968449;28;47183;-78
2022/04/23 03:26:41;;;;;;;34.00;20.80;;;8.40;73.20;;;;;;4969964;28;46354;-78
2022/04/23 03:29:07;;;;;;;35.37;20.77;;;8.50;72.70;;;;;;4968201;28;46283;-79
2022/04/23 03:31:32;;;;;;;31.50;21.00;;;8.60;72.10;;;;;;4969650;28;46559;-78
2022/04/23 03:33:58;;;;;;;32.17;20.50;;;8.70;71.90;;;;;;4974007;28;46271;-76
2022/04/23 03:36:24;;;;;;;29.00;19.87;;;8.60;72.10;;;;;;4967823;28;46323;-78
2022/04/23 03:38:49;;;;;;;36.57;22.20;;;8.50;72.40;;;;;;4956258;28;46417;-77
2022/04/23 03:41:15;;;;;;;33.60;20.50;;;8.50;72.50;;;;;;4952608;28;46893;-77
2022/04/23 03:43:40;;;;;;;32.50;20.73;;;8.50;72.80;;;;;;4971990;28;46048;-77
2022/04/23 03:46:06;;;;;;;32.80;19.70;;;8.50;72.60;;;;;;4975702;28;46425;-78
2022/04/23 03:48:31;;;;;;;31.03;18.90;;;8.40;73.70;;;;;;4974702;28;46437;-77
2022/04/23 03:50:57;;;;;;;33.67;20.27;;;8.50;72.80;;;;;;4976846;28;46428;-78
2022/04/23 03:53:23;;;;;;;34.90;19.77;;;8.50;72.60;;;;;;4953623;28;48411;-78
2022/04/23 03:55:48;;;;;;;33.37;18.77;;;8.40;72.50;;;;;;4975799;28;46491;-78
2022/04/23 03:58:14;;;;;;;30.00;18.27;;;8.40;73.20;;;;;;4977375;28;46449;-77
2022/04/23 04:00:39;;;;;;;29.53;18.87;;;8.30;73.50;;;;;;4974399;28;46360;-79
2022/04/23 04:03:05;;;;;;;28.90;18.87;;;8.30;73.30;;;;;;4972761;28;46393;-78
2022/04/23 04:05:31;;;;;;;28.03;19.97;;;8.30;73.40;;;;;;4978054;28;46308;-77
2022/04/23 04:07:57;;;;;;;28.70;17.93;;;8.30;73.50;;;;;;4982799;28;46266;-79
2022/04/23 04:10:23;;;;;;;29.53;17.73;;;8.30;73.30;;;;;;4973981;28;46143;-77
2022/04/23 04:12:49;;;;;;;31.03;19.23;;;8.40;73.30;;;;;;4979792;28;48114;-78
2022/04/23 04:15:16;;;;;;;27.33;16.53;;;8.30;73.40;;;;;;4977974;28;46382;-77
2022/04/23 04:17:43;;;;;;;26.77;18.07;;;8.30;73.50;;;;;;4974337;28;45869;-77
2022/04/23 04:20:11;;;;;;;30.20;19.07;;;8.30;73.70;;;;;;4978750;28;46569;-77
2022/04/23 04:22:38;;;;;;;26.73;16.90;;;8.30;73.40;;;;;;4971984;28;49250;-79
2022/04/23 04:25:04;;;;;;;30.80;18.03;;;8.30;73.30;;;;;;4970402;28;46318;-77
2022/04/23 04:27:29;;;;;;;27.50;17.53;;;8.30;73.10;;;;;;4976456;28;46624;-78
2022/04/23 04:29:55;;;;;;;26.23;17.47;;;8.30;73.10;;;;;;4974388;28;46489;-78
2022/04/23 04:32:21;;;;;;;26.30;16.93;;;8.20;74.40;;;;;;4978869;28;46413;-79
2022/04/23 04:34:46;;;;;;;30.83;19.93;;;8.20;73.60;;;;;;4955534;28;46498;-77
2022/04/23 04:37:12;;;;;;;27.40;17.67;;;8.20;73.90;;;;;;4975902;28;46422;-77
2022/04/23 04:39:40;;;;;;;28.83;17.80;;;8.20;73.70;;;;;;4974589;28;46357;-78
2022/04/23 04:42:07;;;;;;;28.13;17.63;;;8.30;73.50;;;;;;4973008;28;47377;-78
2022/04/23 04:44:33;;;;;;;29.73;18.47;;;8.30;73.20;;;;;;4977462;28;46446;-78
2022/04/23 04:46:59;;;;;;;27.07;17.87;;;8.30;73.10;;;;;;4973260;28;46352;-77
2022/04/23 04:49:25;;;;;;;28.57;18.70;;;8.20;73.10;;;;;;4975781;28;46396;-77
2022/04/23 04:51:52;;;;;;;30.27;20.27;;;8.20;73.30;;;;;;4957150;28;47359;-80
2022/04/23 04:54:21;;;;;;;34.13;20.40;;;8.30;72.90;;;;;;4968750;28;45854;-80
2022/04/23 04:56:47;;;;;;;30.70;18.70;;;8.40;72.80;;;;;;4970056;28;46318;-80
2022/04/23 04:59:13;;;;;;;31.30;18.90;;;8.40;72.60;;;;;;4970604;28;46291;-79
2022/04/23 05:01:39;;;;;;;28.63;18.53;;;8.40;72.70;;;;;;4973799;28;46401;-78
2022/04/23 05:04:04;;;;;;;31.87;21.00;;;8.40;72.80;;;;;;4971866;28;46434;-79
2022/04/23 05:06:30;;;;;;;32.27;20.77;;;8.40;72.90;;;;;;4968720;28;46340;-79
2022/04/23 05:08:55;;;;;;;30.50;21.17;;;8.30;73.10;;;;;;4974680;28;46339;-80
2022/04/23 05:11:21;;;;;;;34.13;21.77;;;8.40;73.10;;;;;;4981777;28;52572;-78
2022/04/23 05:13:46;;;;;;;33.30;22.10;;;8.50;72.90;;;;;;4973980;28;46437;-78
2022/04/23 05:16:13;;;;;;;34.07;21.47;;;8.40;72.70;;;;;;4977425;28;45863;-79
2022/04/23 05:18:39;;;;;;;36.37;21.97;;;8.50;72.90;;;;;;4978009;28;46544;-79
2022/04/23 05:21:04;;;;;;;34.33;22.03;;;8.50;73.90;;;;;;4973792;28;46478;-77
2022/04/23 05:23:30;;;;;;;35.67;23.37;;;8.50;72.60;;;;;;4976623;28;45935;-79
2022/04/23 05:25:57;;;;;;;33.47;22.50;;;8.50;72.80;;;;;;4973772;28;46389;-78
2022/04/23 05:28:23;;;;;;;35.37;22.40;;;8.50;72.80;;;;;;4955393;28;45894;-78
2022/04/23 05:30:48;;;;;;;32.03;21.27;;;8.40;73.10;;;;;;4968709;28;46510;-78
2022/04/23 05:33:14;;;;;;;35.80;22.97;;;8.40;73.50;;;;;;4954760;28;47071;-78
2022/04/23 05:35:39;;;;;;;38.03;21.37;;;8.30;73.80;;;;;;4973752;28;46497;-77
2022/04/23 05:38:05;;;;;;;35.67;21.70;;;8.30;73.70;;;;;;4971348;28;46306;-78
2022/04/23 05:40:32;;;;;;;35.10;22.50;;;8.40;73.60;;;;;;4970449;28;48346;-79
2022/04/23 05:43:00;;;;;;;31.57;19.57;;;8.40;73.70;;;;;;4971816;28;46434;-78
2022/04/23 05:45:27;;;;;;;31.50;20.10;;;8.40;73.60;;;;;;4970471;28;46405;-78
2022/04/23 05:47:53;;;;;;;33.03;22.20;;;8.40;73.70;;;;;;4973644;28;46302;-77
2022/04/23 05:50:19;;;;;;;31.87;20.07;;;8.40;73.60;;;;;;4967038;28;46449;-76
2022/04/23 05:52:45;;;;;;;30.67;19.60;;;8.40;73.60;;;;;;4965156;28;46388;-77
2022/04/23 05:55:11;;;;;;;27.20;18.60;;;8.50;73.60;;;;;;4968776;28;46496;-77
2022/04/23 05:57:37;;;;;;;32.23;17.70;;;8.50;73.50;;;;;;4949563;28;46445;-77
2022/04/23 06:00:08;;;;;;;31.33;19.00;;;8.50;73.70;;;;;;4962172;28;46576;-78
2022/04/23 06:02:34;;;;;;;31.83;17.73;;;8.50;73.70;;;;;;4965886;28;46179;-77
2022/04/23 06:04:59;;;;;;;29.80;19.20;;;8.60;74.00;;;;;;4964969;28;46481;-78
2022/04/23 06:07:25;;;;;;;36.37;19.27;;;8.50;73.80;;;;;;4951030;28;46589;-78
2022/04/23 06:09:51;;;;;;;29.13;18.97;;;8.50;73.60;;;;;;4955309;28;54183;-78
2022/04/23 06:12:16;;;;;;;32.07;19.07;;;8.60;73.30;;;;;;4971554;28;45878;-78
2022/04/23 06:14:44;;;;;;;31.77;18.30;;;8.70;73.20;;;;;;4956498;28;51932;-77
2022/04/23 06:17:11;;;;;;;30.60;16.97;;;8.70;73.10;;;;;;4974212;28;46574;-78
2022/04/23 06:19:38;;;;;;;30.90;19.50;;;8.60;73.10;;;;;;4968772;28;46522;-77
2022/04/23 06:22:04;;;;;;;29.93;18.40;;;8.70;73.40;;;;;;4965709;28;46492;-78
2022/04/23 06:24:30;;;;;;;29.83;18.30;;;8.80;72.90;;;;;;4976272;28;46994;-79
2022/04/23 06:26:56;;;;;;;30.60;18.97;;;8.90;73.60;;;;;;4956995;28;46370;-81
2022/04/23 06:29:22;;;;;;;27.13;17.53;;;8.90;72.50;;;;;;4969924;28;46229;-80
2022/04/23 06:31:47;;;;;;;30.50;19.27;;;8.90;72.50;;;;;;4971076;28;46239;-78
2022/04/23 06:34:13;;;;;;;28.40;18.67;;;8.90;72.20;;;;;;4950358;28;46785;-79
2022/04/23 06:36:40;;;;;;;27.40;17.43;;;9.00;72.10;;;;;;4958872;28;46493;-80
2022/04/23 06:39:06;;;;;;;28.60;18.70;;;9.00;71.90;;;;;;4969549;28;46447;-79
2022/04/23 06:41:32;;;;;;;28.53;18.57;;;9.00;71.70;;;;;;4975892;28;46378;-79
2022/04/23 06:43:58;;;;;;;30.63;19.50;;;9.00;71.50;;;;;;4973673;28;46425;-81
2022/04/23 06:46:23;;;;;;;27.77;17.23;;;9.10;71.60;;;;;;4974423;28;46371;-81
2022/04/23 06:48:49;;;;;;;30.70;17.67;;;9.20;71.30;;;;;;4973470;28;46312;-80
2022/04/23 06:51:15;;;;;;;26.73;17.97;;;9.20;71.00;;;;;;4972255;28;46635;-82
2022/04/23 06:53:41;;;;;;;26.37;17.03;;;9.30;71.00;;;;;;4977880;28;46211;-79
2022/04/23 06:56:07;;;;;;;28.50;17.83;;;9.30;70.60;;;;;;4968972;28;46365;-79
2022/04/23 06:58:32;;;;;;;26.00;16.00;;;9.30;70.30;;;;;;4971176;28;47477;-79
2022/04/23 07:00:58;;;;;;;27.80;15.10;;;9.40;70.20;;;;;;4952838;28;46529;-80
2022/04/23 07:03:27;;;;;;;24.87;16.37;;;9.40;70.10;;;;;;4974026;28;46361;-78
2022/04/23 07:05:53;;;;;;;23.20;14.53;;;9.40;70.00;;;;;;4970033;28;46382;-80
2022/04/23 07:08:19;;;;;;;28.80;16.20;;;9.50;69.90;;;;;;4967917;28;47218;-78
2022/04/23 07:10:44;;;;;;;31.13;16.97;;;9.50;69.40;;;;;;4970322;28;46323;-77
2022/04/23 07:13:11;;;;;;;25.00;17.10;;;9.60;69.30;;;;;;4970545;28;46474;-78
2022/04/23 07:15:38;;;;;;;28.47;17.50;;;9.50;69.40;;;;;;4952190;28;46495;-78
2022/04/23 07:18:04;;;;;;;25.07;17.27;;;9.50;70.50;;;;;;4954144;28;48279;-78
2022/04/23 07:20:29;;;;;;;30.27;17.30;;;9.50;69.40;;;;;;4956745;28;47097;-78
2022/04/23 07:25:40;;;;;;;25.63;17.47;;;9.50;69.30;;;;;;4979532;28;45783;-77
2022/04/23 07:28:06;;;;;;;28.67;17.63;;;9.50;69.40;;;;;;4973620;28;47163;-76
2022/04/23 07:30:34;;;;;;;25.80;16.77;;;9.40;69.40;;;;;;4976522;28;46334;-78
2022/04/23 07:32:59;;;;;;;27.83;17.87;;;9.50;69.30;;;;;;4956730;28;46343;-76
2022/04/23 07:38:19;;;;;;;24.37;15.50;;;9.50;68.90;;;;;;4974335;28;46487;-78
2022/04/23 07:40:48;;;;;;;22.20;16.20;;;9.50;69.00;;;;;;4982362;28;46488;-78
2022/04/23 07:43:15;;;;;;;23.50;15.90;;;9.50;69.00;;;;;;4977018;28;46404;-78
2022/04/23 07:45:42;;;;;;;28.00;16.00;;;9.60;69.00;;;;;;4982825;28;46219;-77
2022/04/23 07:48:09;;;;;;;29.00;15.10;;;9.50;69.00;;;;;;4978367;28;46373;-77
2022/04/23 07:50:36;;;;;;;26.97;15.47;;;9.50;69.10;;;;;;4960654;28;46836;-76
2022/04/23 07:53:03;;;;;;;28.13;15.17;;;9.40;69.20;;;;;;4977682;28;46735;-78
2022/04/23 07:55:32;;;;;;;25.07;15.70;;;9.50;69.30;;;;;;4976949;28;46701;-78
2022/04/23 07:58:03;;;;;;;23.73;15.03;;;9.50;69.20;;;;;;4959842;28;46437;-77
2022/04/23 08:00:34;;;;;;;24.73;15.43;;;9.60;69.30;;;;;;4974540;28;46062;-76
2022/04/23 08:03:02;;;;;;;24.97;14.97;;;9.70;69.00;;;;;;4976210;28;45921;-79
2022/04/23 08:05:31;;;;;;;20.93;14.27;;;9.70;68.40;;;;;;4974527;28;46438;-78
2022/04/23 08:07:57;;;;;;;22.23;14.10;;;9.80;68.30;;;;;;4973319;28;46794;-77
2022/04/23 08:10:23;;;;;;;25.20;14.17;;;9.90;68.10;;;;;;4958974;28;46364;-78
2022/04/23 08:12:49;;;;;;;23.40;13.33;;;10.00;67.00;;;;;;4977569;28;46402;-78
2022/04/23 08:15:15;;;;;;;21.87;13.30;;;9.90;67.70;;;;;;4957326;28;46057;-77
2022/04/23 08:17:40;;;;;;;24.83;14.97;;;9.90;67.60;;;;;;4977116;28;47112;-79
2022/04/23 08:20:08;;;;;;;22.10;13.67;;;10.10;66.30;;;;;;4971036;28;46089;-78
2022/04/23 08:22:33;;;;;;;20.50;12.60;;;10.10;66.10;;;;;;4971770;28;45862;-77
2022/04/23 08:24:59;;;;;;;22.53;13.60;;;10.00;67.40;;;;;;4976377;28;45901;-77
2022/04/23 08:27:24;;;;;;;23.90;13.50;;;10.10;66.20;;;;;;4968815;28;47410;-79
2022/04/23 08:32:35;;;;;;;25.60;13.57;;;10.30;65.60;;;;;;4970592;28;46400;-80
2022/04/23 08:35:01;;;;;;;24.30;13.30;;;10.40;65.10;;;;;;4974814;28;47286;-79
2022/04/23 08:37:26;;;;;;;23.50;13.97;;;10.40;65.10;;;;;;4970333;28;46427;-77
2022/04/23 08:39:52;;;;;;;20.10;12.30;;;10.50;65.30;;;;;;4953752;28;46737;-78
2022/04/23 08:42:18;;;;;;;19.43;12.80;;;10.40;64.80;;;;;;4973506;28;46497;-78
2022/04/23 08:44:44;;;;;;;25.80;13.70;;;10.40;64.80;;;;;;4968048;28;46419;-79
2022/04/23 08:47:16;;;;;;;20.33;13.67;;;10.50;64.90;;;;;;4975737;28;46333;-77
2022/04/23 08:49:42;;;;;;;22.23;13.70;;;10.50;64.90;;;;;;4965703;28;46569;-78
2022/04/23 08:52:21;;;;;;;23.07;13.70;;;10.50;64.90;;;;;;4971827;28;46417;-79
2022/04/23 08:54:47;;;;;;;24.90;14.97;;;10.60;65.20;;;;;;4959638;28;46473;-79
2022/04/23 08:57:13;;;;;;;24.30;15.00;;;10.60;64.40;;;;;;4971361;28;47705;-78
2022/04/23 08:59:39;;;;;;;23.47;15.07;;;10.60;64.40;;;;;;4970909;28;46520;-80
2022/04/23 09:02:13;;;;;;;25.00;14.67;;;10.60;64.20;;;;;;4968742;28;46431;-79
2022/04/23 09:04:42;;;;;;;28.33;14.80;;;10.60;64.20;;;;;;4958738;28;46606;-79
2022/04/23 09:07:17;;;;;;;23.40;14.30;;;10.80;64.00;;;;;;4968595;28;46457;-79
2022/04/23 09:09:48;;;;;;;23.80;14.27;;;10.90;63.40;;;;;;4970275;28;46524;-78
2022/04/23 09:12:14;;;;;;;24.27;14.00;;;10.90;63.20;;;;;;4972477;28;46368;-79
2022/04/23 09:14:39;;;;;;;22.97;13.67;;;11.10;62.80;;;;;;4971464;28;46530;-79
2022/04/23 09:25:29;;;;;;;30.83;14.17;;;11.80;60.40;;;;;;4971652;28;46472;-79
2022/04/23 09:27:55;;;;;;;26.50;14.80;;;11.80;59.80;;;;;;4969507;28;46482;-79
2022/04/23 09:30:21;;;;;;;24.50;14.67;;;11.70;59.50;;;;;;4967356;28;46477;-81
2022/04/23 09:32:57;;;;;;;26.83;13.17;;;12.00;59.40;;;;;;4966021;28;46441;-79
2022/04/23 09:35:24;;;;;;;22.87;13.70;;;12.00;58.70;;;;;;4965633;28;46399;-81
2022/04/23 09:40:35;;;;;;;25.70;14.57;;;12.10;58.10;;;;;;4947995;28;46385;-80
2022/04/23 09:43:05;;;;;;;27.13;13.97;;;12.10;57.60;;;;;;4949716;28;46564;-78
2022/04/23 09:45:33;;;;;;;24.43;14.63;;;12.20;57.30;;;;;;4969190;28;46822;-78
2022/04/23 09:48:16;;;;;;;26.10;13.57;;;12.40;56.70;;;;;;4967711;28;47222;-80
2022/04/23 09:50:44;;;;;;;28.23;13.23;;;12.40;56.00;;;;;;4967557;28;46429;-80
2022/04/23 09:53:09;;;;;;;23.00;14.33;;;12.50;55.90;;;;;;4970265;28;46358;-80
2022/04/23 09:55:35;;;;;;;20.17;14.30;;;12.70;55.50;;;;;;4968724;28;46814;-80
2022/04/23 09:58:04;;;;;;;23.00;15.00;;;12.70;55.20;;;;;;4967547;28;47834;-81
2022/04/23 10:00:30;;;;;;;23.53;14.03;;;12.90;55.10;;;;;;4948569;28;46083;-81
2022/04/23 10:03:00;;;;;;;23.23;14.20;;;12.90;54.30;;;;;;4965369;28;46420;-82
2022/04/23 10:05:27;;;;;;;20.90;13.90;;;12.80;54.30;;;;;;4967669;28;46680;-79
2022/04/23 10:07:56;;;;;;;27.20;15.73;;;12.80;54.20;;;;;;4969939;28;46548;-81
2022/04/23 10:10:27;;;;;;;21.17;15.40;;;12.90;54.40;;;;;;4968303;28;46390;-80
2022/04/23 10:12:57;;;;;;;22.70;14.37;;;13.10;53.40;;;;;;4953778;28;46516;-82
2022/04/23 10:15:23;;;;;;;22.10;16.20;;;13.20;53.10;;;;;;4973077;28;46553;-83
2022/04/23 10:17:50;;;;;;;20.90;14.73;;;13.20;52.60;;;;;;4971412;28;46405;-81
2022/04/23 10:20:16;;;;;;;21.97;14.87;;;13.30;52.30;;;;;;4956592;28;46564;-82
2022/04/23 10:23:05;;;;;;;22.43;13.97;;;13.50;52.20;;;;;;4953065;28;46725;-79
2022/04/23 10:25:49;;;;;;;27.70;13.70;;;13.60;51.00;;;;;;4972813;28;46434;-80
2022/04/23 10:28:17;;;;;;;19.60;13.60;;;13.70;50.60;;;;;;4969756;28;46461;-80
2022/04/23 10:30:47;;;;;;;18.80;13.67;;;13.90;50.20;;;;;;4969870;28;46405;-82
2022/04/23 10:33:27;;;;;;;18.47;12.80;;;13.80;49.30;;;;;;4953400;28;46473;-80
2022/04/23 10:36:09;;;;;;;19.77;14.80;;;14.00;49.40;;;;;;4969282;28;46514;-80
2022/04/23 10:38:42;;;;;;;18.10;13.50;;;14.30;48.80;;;;;;4969296;28;46480;-78
2022/04/23 10:41:10;;;;;;;19.63;13.13;;;14.40;48.10;;;;;;4969128;28;46415;-80
2022/04/23 10:43:46;;;;;;;18.90;13.43;;;14.40;48.00;;;;;;4968266;28;46421;-80
2022/04/23 10:46:37;;;;;;;17.67;12.07;;;14.30;48.10;;;;;;4969181;28;46460;-81
2022/04/23 10:49:20;;;;;;;21.00;12.70;;;14.10;48.10;;;;;;4966613;28;47148;-80
2022/04/23 10:51:47;;;;;;;19.43;13.23;;;14.20;47.70;;;;;;4969571;28;46545;-79
2022/04/23 10:54:15;;;;;;;17.23;12.60;;;14.40;47.50;;;;;;4954804;28;46434;-80
2022/04/23 10:56:42;;;;;;;19.43;12.33;;;14.50;47.40;;;;;;4955876;28;46437;-79
2022/04/23 10:59:34;;;;;;;16.33;12.37;;;14.50;47.00;;;;;;4972192;28;46406;-78
2022/04/23 11:02:06;;;;;;;24.70;13.37;;;14.30;47.10;;;;;;4963596;28;46940;-79
2022/04/23 11:04:35;;;;;;;15.57;11.90;;;14.20;47.20;;;;;;4974901;28;46506;-80
2022/04/23 11:12:38;;;;;;;17.37;12.47;;;14.40;47.20;;;;;;4968640;28;46401;-79
2022/04/23 11:15:15;;;;;;;14.13;10.93;;;14.60;46.80;;;;;;4975934;28;46455;-80
2022/04/23 11:17:53;;;;;;;17.73;11.93;;;14.60;46.60;;;;;;4969858;28;46458;-79
2022/04/23 11:20:34;;;;;;;20.93;12.87;;;14.50;46.10;;;;;;4970501;28;46687;-79
2022/04/23 11:23:01;;;;;;;18.80;12.80;;;14.40;46.40;;;;;;4977791;28;46434;-79
2022/04/23 11:25:27;;;;;;;17.70;13.70;;;14.50;46.30;;;;;;4972730;28;46466;-80
2022/04/23 11:27:53;;;;;;;20.60;13.73;;;14.60;46.60;;;;;;4957400;28;46571;-79
2022/04/23 11:30:28;;;;;;;22.27;13.40;;;14.70;46.70;;;;;;4949998;28;49113;-78
2022/04/23 11:32:54;;;;;;;19.87;14.43;;;14.70;46.20;;;;;;4980976;28;46359;-80
2022/04/23 11:35:28;;;;;;;22.33;14.60;;;14.80;46.10;;;;;;4973391;28;45897;-80
2022/04/23 11:37:53;;;;;;;25.60;14.60;;;14.90;45.70;;;;;;4974229;28;46475;-80
2022/04/23 11:40:23;;;;;;;23.37;15.70;;;15.00;46.80;;;;;;4973395;28;46611;-80
2022/04/23 11:42:49;;;;;;;22.83;14.43;;;15.10;45.10;;;;;;4952971;28;46731;-79
2022/04/23 11:45:17;;;;;;;238.10;30.10;;;15.20;44.80;;;;;;4976867;28;46488;-79
2022/04/23 11:47:42;;;;;;;29.90;15.20;;;15.30;44.20;;;;;;4971633;28;46311;-79
2022/04/23 11:50:10;;;;;;;22.80;15.57;;;15.40;44.00;;;;;;4973739;28;48064;-80
2022/04/23 11:52:37;;;;;;;22.80;16.30;;;15.30;44.10;;;;;;4971265;28;46478;-79
2022/04/23 11:55:03;;;;;;;25.93;16.87;;;15.20;44.00;;;;;;4973635;28;46676;-80
2022/04/23 11:57:28;;;;;;;26.33;15.90;;;15.20;43.30;;;;;;4960095;28;46486;-80
2022/04/23 11:59:59;;;;;;;30.77;19.60;;;15.20;44.20;;;;;;4969667;28;46347;-80
2022/04/23 12:02:30;;;;;;;26.20;17.70;;;15.20;44.10;;;;;;4955956;28;46331;-78
2022/04/23 12:05:01;;;;;;;30.27;16.30;;;15.30;43.80;;;;;;4969242;28;46437;-79
2022/04/23 12:07:27;;;;;;;25.17;17.10;;;15.70;43.60;;;;;;4970348;28;46373;-80
2022/04/23 12:09:58;;;;;;;25.40;16.57;;;15.70;42.60;;;;;;4967734;28;46483;-79
2022/04/23 12:12:25;;;;;;;30.70;16.57;;;15.90;41.90;;;;;;4970405;28;45794;-79
2022/04/23 12:15:11;;;;;;;24.37;15.83;;;15.80;42.00;;;;;;4972110;28;46418;-78
2022/04/23 12:17:46;;;;;;;24.67;14.70;;;15.70;42.50;;;;;;4972051;28;46437;-80
2022/04/23 12:20:19;;;;;;;27.23;15.63;;;15.80;41.80;;;;;;4970787;28;46715;-79
2022/04/23 12:23:05;;;;;;;25.70;16.07;;;15.70;41.70;;;;;;4955647;28;46432;-78
2022/04/23 12:25:32;;;;;;;26.40;16.30;;;15.80;41.90;;;;;;4968983;28;46516;-80
2022/04/23 12:42:11;;;;;;;24.40;16.00;;;16.00;41.00;;;;;;4978020;28;46003;-79
2022/04/23 12:44:46;;;;;;;24.60;15.07;;;15.90;40.50;;;;;;4957652;28;46443;-80
2022/04/23 12:47:21;;;;;;;27.20;15.73;;;16.10;40.70;;;;;;4974513;28;46425;-80
2022/04/23 12:49:57;;;;;;;26.57;15.20;;;16.10;40.10;;;;;;4978537;28;46484;-77
2022/04/23 12:52:25;;;;;;;24.20;15.60;;;16.30;40.10;;;;;;4971252;28;46948;-77
2022/04/23 12:55:13;;;;;;;26.03;15.40;;;16.30;39.80;;;;;;4974861;28;46386;-79
2022/04/23 12:57:50;;;;;;;22.20;13.97;;;16.30;39.90;;;;;;4971210;28;46343;-79
2022/04/23 13:00:20;;;;;;;31.37;16.40;;;16.10;39.60;;;;;;4973723;28;46450;-80
2022/04/23 13:02:50;;;;;;;26.47;16.27;;;15.90;40.10;;;;;;4954140;28;48320;-78
2022/04/23 13:05:16;;;;;;;25.10;15.17;;;15.70;40.80;;;;;;4970490;28;46376;-80
2022/04/23 13:10:26;;;;;;;27.13;16.77;;;15.40;41.70;;;;;;4969559;28;46452;-79
2022/04/23 13:12:52;;;;;;;27.30;17.40;;;15.30;41.80;;;;;;4970342;28;47108;-79
2022/04/23 13:15:18;;;;;;;27.80;16.13;;;15.20;42.10;;;;;;4971503;28;46418;-80
2022/04/23 13:17:45;;;;;;;25.30;15.50;;;15.40;41.90;;;;;;4969053;28;46508;-79